LFBY/XDA METAR and TAF weather

Enter ICAO airport designator
Station Type Date Time Source
LFBY METAR 2021/02/27 04:00 UTC NOAA

LFBY 270400Z AUTO 03005KT 350V080 9999 // ////// 10/07 Q1031


Station Type Date Time Source
LFBY Decoded METAR 2021/02/27 04:00 UTC NOAA

Dax, France (LFBY) 43-41N 001-04W 32M
Feb 26, 2021 - 11:00 PM EST / 2021.02.27 0400 UTC
Wind: from the NNE (030 degrees) at 6 MPH (5 KT) (direction variable):0
Visibility: greater than 7 mile(s):0
Temperature: 50 F (10 C)
Dew Point: 44 F (7 C)
Relative Humidity: 81%
Pressure (altimeter): 30.45 in. Hg (1031 hPa)
ob: LFBY 270400Z AUTO 03005KT 350V080 9999 // ////// 10/07 Q1031
cycle: 4

Station Type Date Time Source
LFBY TAF UTC NOAA

Error!

Example: see airport list